Time;durP1;ratioP1;P1;durP2;ratioP2;P2;SDS_P1;SDS_P2;PMS_P1;PMS_P2;Temp;Humidity;BMP_temperature;BMP_pressure;BME280_temperature;BME280_humidity;BME280_pressure;Samples;Min_cycle;Max_cycle;Signal;HPM_P1;HPM_P2
2023/08/10 00:11:52;;;;;;;12.32;8.10;;;19.40;99.90;;;;;;4587931;19;20002;-26
2023/08/10 00:13:24;;;;;;;12.38;7.95;;;19.30;99.90;;;;;;4589044;19;20348;-27
2023/08/10 00:14:57;;;;;;;12.43;8.85;;;19.30;99.90;;;;;;4590123;19;20060;-29
2023/08/10 00:16:29;;;;;;;12.68;8.63;;;19.30;99.90;;;;;;4591254;19;20012;-26
2023/08/10 00:18:01;;;;;;;14.00;9.38;;;19.30;99.90;;;;;;4590810;19;20026;-26
2023/08/10 00:19:34;;;;;;;16.35;8.88;;;19.30;99.90;;;;;;4590624;19;20471;-26
2023/08/10 00:21:07;;;;;;;15.13;10.07;;;19.30;99.90;;;;;;4591430;19;20007;-26
2023/08/10 00:22:39;;;;;;;16.63;10.52;;;19.30;99.90;;;;;;4591462;19;20044;-28
2023/08/10 00:24:11;;;;;;;17.50;10.38;;;19.30;99.90;;;;;;4590142;19;20014;-31
2023/08/10 00:25:43;;;;;;;15.18;9.77;;;19.30;99.90;;;;;;4590514;19;20015;-28
2023/08/10 00:27:15;;;;;;;17.58;11.00;;;19.30;99.90;;;;;;4591168;19;20014;-27
2023/08/10 00:28:46;;;;;;;12.90;9.20;;;19.30;99.90;;;;;;4591398;19;20411;-26
2023/08/10 01:03:23;;;;;;;;;;;19.10;99.90;;;;;;4590074;19;19998;-29
2023/08/10 01:04:54;;;;;;;8.32;5.75;;;19.10;99.90;;;;;;4590362;19;19915;-26
2023/08/10 01:06:34;;;;;;;11.00;6.30;;;19.10;99.90;;;;;;4590755;19;20021;-26
2023/08/10 01:08:16;;;;;;;10.55;6.82;;;19.10;99.90;;;;;;4590490;19;20009;-26
2023/08/10 01:10:05;;;;;;;8.27;5.95;;;19.10;99.90;;;;;;4589511;19;20028;-26
2023/08/10 01:11:39;;;;;;;10.85;6.40;;;19.10;99.90;;;;;;4587995;19;20110;-26
2023/08/10 01:13:18;;;;;;;9.38;6.38;;;19.10;99.90;;;;;;4589161;19;20014;-26
2023/08/10 01:14:58;;;;;;;10.20;6.05;;;19.10;99.90;;;;;;4589688;19;20014;-33
2023/08/10 01:16:31;;;;;;;7.70;5.60;;;19.10;99.90;;;;;;4589826;19;20014;-26
2023/08/10 01:18:03;;;;;;;7.55;5.40;;;19.10;99.90;;;;;;4588905;19;20062;-26
2023/08/10 01:19:36;;;;;;;9.70;6.55;;;19.10;99.90;;;;;;4589071;19;20034;-30
2023/08/10 01:21:35;;;;;;;9.25;6.00;;;19.10;99.90;;;;;;4588974;19;20015;-29
2023/08/10 01:23:13;;;;;;;8.30;5.78;;;19.10;99.90;;;;;;4588668;19;20018;-26
2023/08/10 01:24:53;;;;;;;10.60;6.35;;;19.10;99.90;;;;;;4592681;19;20014;-29
2023/08/10 01:26:26;;;;;;;8.07;5.95;;;19.10;99.90;;;;;;4593811;19;20114;-33
2023/08/10 01:27:57;;;;;;;9.45;6.50;;;19.10;99.90;;;;;;4593554;19;20006;-26
2023/08/10 01:29:29;;;;;;;8.93;6.38;;;19.10;99.90;;;;;;4593668;19;20070;-31
2023/08/10 01:31:00;;;;;;;9.73;7.15;;;19.10;99.90;;;;;;4593320;19;20070;-26
2023/08/10 01:32:32;;;;;;;12.80;8.55;;;19.10;99.90;;;;;;4594275;19;20084;-26
2023/08/10 01:34:05;;;;;;;13.18;8.65;;;19.10;99.90;;;;;;4594798;19;20371;-26
2023/08/10 01:35:37;;;;;;;10.93;7.60;;;19.10;99.90;;;;;;4595029;19;20018;-26
2023/08/10 01:37:09;;;;;;;12.65;6.32;;;19.10;99.90;;;;;;4594968;19;19998;-26
2023/08/10 01:38:40;;;;;;;9.82;6.35;;;19.10;99.90;;;;;;4593392;19;20023;-26
2023/08/10 01:40:12;;;;;;;8.70;6.10;;;19.10;99.90;;;;;;4593577;19;20017;-33
2023/08/10 01:41:43;;;;;;;9.55;6.43;;;19.10;99.90;;;;;;4593910;19;20002;-26
2023/08/10 01:43:15;;;;;;;8.35;6.03;;;19.10;99.90;;;;;;4594836;19;20033;-30
2023/08/10 01:44:46;;;;;;;8.00;5.75;;;19.10;99.90;;;;;;4594450;19;20495;-26
2023/08/10 01:46:18;;;;;;;8.90;6.10;;;19.10;99.90;;;;;;4591984;19;20014;-31
2023/08/10 01:47:54;;;;;;;8.40;6.03;;;19.10;99.90;;;;;;4593444;19;20014;-26
2023/08/10 01:49:27;;;;;;;9.82;5.85;;;19.10;99.90;;;;;;4593696;19;20007;-30
2023/08/10 01:50:58;;;;;;;9.25;5.15;;;19.10;99.90;;;;;;4592251;19;20066;-26
2023/08/10 01:52:33;;;;;;;7.93;5.95;;;19.10;99.90;;;;;;4593002;19;20007;-26
2023/08/10 01:54:07;;;;;;;8.02;5.47;;;19.00;99.90;;;;;;4593830;19;20002;-26
2023/08/10 01:55:39;;;;;;;7.57;5.53;;;19.00;99.90;;;;;;4593341;19;20096;-32
2023/08/10 01:57:10;;;;;;;6.25;5.32;;;19.10;99.90;;;;;;4593191;19;20066;-26
2023/08/10 01:58:42;;;;;;;11.15;6.03;;;19.00;99.90;;;;;;4593843;19;20010;-26
2023/08/10 02:00:13;;;;;;;7.40;5.38;;;19.10;99.90;;;;;;4593264;19;20017;-25
2023/08/10 02:01:45;;;;;;;7.97;5.10;;;19.10;99.90;;;;;;4593388;19;20018;-26
2023/08/10 02:03:19;;;;;;;8.82;5.53;;;19.10;99.90;;;;;;4592808;19;20034;-27
2023/08/10 02:04:51;;;;;;;7.88;5.18;;;19.10;99.90;;;;;;4592950;19;20010;-26
2023/08/10 02:06:22;;;;;;;7.88;5.70;;;19.00;99.90;;;;;;4593646;19;20002;-29
2023/08/10 02:07:55;;;;;;;8.20;5.38;;;19.00;99.90;;;;;;4593489;19;20029;-26
2023/08/10 02:09:27;;;;;;;7.78;5.25;;;19.10;99.90;;;;;;4592874;19;20066;-26
2023/08/10 02:11:01;;;;;;;7.57;5.38;;;19.10;99.90;;;;;;4592570;19;20476;-26
2023/08/10 02:12:32;;;;;;;6.85;5.28;;;19.00;99.90;;;;;;4594522;19;20003;-26
2023/08/10 02:14:04;;;;;;;9.05;5.70;;;19.00;99.90;;;;;;4592689;19;20010;-28
2023/08/10 02:15:35;;;;;;;7.65;5.65;;;19.00;99.90;;;;;;4592936;19;20011;-27
2023/08/10 02:17:09;;;;;;;8.45;5.25;;;19.00;99.90;;;;;;4593701;19;20009;-31
2023/08/10 02:18:43;;;;;;;7.60;5.47;;;19.00;99.90;;;;;;4593006;19;20021;-26
2023/08/10 02:20:14;;;;;;;8.45;5.32;;;19.00;99.90;;;;;;4593379;19;20017;-28
2023/08/10 02:21:46;;;;;;;10.25;6.70;;;19.00;99.90;;;;;;4594116;19;20029;-26
2023/08/10 02:23:18;;;;;;;7.88;5.15;;;19.00;99.90;;;;;;4592597;19;20018;-25
2023/08/10 02:24:49;;;;;;;7.90;5.40;;;19.00;99.90;;;;;;4592617;19;20483;-30
2023/08/10 02:26:21;;;;;;;8.30;5.90;;;19.00;99.90;;;;;;4592515;19;20352;-27
2023/08/10 02:27:53;;;;;;;11.80;9.10;;;19.00;99.90;;;;;;4592551;19;20011;-27
2023/08/10 02:29:26;;;;;;;18.70;13.73;;;19.00;99.90;;;;;;4593532;19;20010;-28
2023/08/10 02:30:57;;;;;;;16.98;13.35;;;19.00;99.90;;;;;;4593607;19;20010;-26
2023/08/10 02:32:28;;;;;;;14.93;11.68;;;19.00;99.90;;;;;;4592171;19;20062;-27
2023/08/10 02:34:00;;;;;;;;;;;19.00;99.90;;;;;;4593735;19;20074;-26
2023/08/10 02:35:31;;;;;;;10.45;7.60;;;19.00;99.90;;;;;;4593426;19;19926;-26
2023/08/10 02:37:03;;;;;;;9.60;7.97;;;19.00;99.90;;;;;;4590357;19;20025;-26
2023/08/10 02:38:36;;;;;;;9.07;6.85;;;19.00;99.90;;;;;;4591991;19;20014;-30
2023/08/10 02:40:12;;;;;;;9.15;6.75;;;19.00;99.90;;;;;;4593183;19;20015;-26
2023/08/10 02:41:44;;;;;;;7.97;5.85;;;19.00;99.90;;;;;;4592357;19;20078;-31
2023/08/10 02:43:15;;;;;;;10.02;5.82;;;18.90;99.90;;;;;;4592888;19;20352;-26
2023/08/10 02:44:49;;;;;;;8.85;5.72;;;19.00;99.90;;;;;;4592937;19;20070;-29
2023/08/10 02:46:21;;;;;;;7.60;5.53;;;19.00;99.90;;;;;;4592638;19;20020;-26
2023/08/10 02:47:53;;;;;;;;;;;19.00;99.90;;;;;;4594436;19;20006;-26
2023/08/10 02:49:24;;;;;;;8.70;5.97;;;19.00;99.90;;;;;;4593191;19;19919;-28
2023/08/10 02:50:56;;;;;;;12.40;7.90;;;18.90;99.90;;;;;;4591353;19;20843;-26
2023/08/10 02:52:28;;;;;;;19.02;13.02;;;19.00;99.90;;;;;;4593233;19;20017;-26
2023/08/10 02:54:03;;;;;;;21.77;13.98;;;19.00;99.90;;;;;;4593232;19;20006;-26
2023/08/10 02:55:36;;;;;;;26.02;15.63;;;19.00;99.90;;;;;;4591916;19;20333;-28
2023/08/10 02:57:09;;;;;;;30.50;18.95;;;18.90;99.90;;;;;;4592943;19;20021;-26
2023/08/10 02:58:42;;;;;;;24.27;15.30;;;19.00;99.90;;;;;;4593387;19;20010;-29
2023/08/10 03:00:14;;;;;;;19.20;12.65;;;18.90;99.90;;;;;;4592516;19;20054;-26
2023/08/10 03:01:47;;;;;;;13.98;8.48;;;18.90;99.90;;;;;;4591881;19;20388;-26
2023/08/10 03:03:22;;;;;;;12.10;7.60;;;18.90;99.90;;;;;;4592052;19;20057;-29
2023/08/10 03:04:55;;;;;;;13.40;8.93;;;18.90;99.90;;;;;;4592270;19;20011;-26
2023/08/10 03:06:28;;;;;;;14.15;8.88;;;19.00;99.90;;;;;;4592491;19;20018;-26
2023/08/10 03:07:59;;;;;;;11.48;7.85;;;18.90;99.90;;;;;;4592690;19;20037;-26
2023/08/10 03:09:31;;;;;;;11.93;8.00;;;18.90;99.90;;;;;;4592842;19;20011;-26
2023/08/10 03:11:03;;;;;;;11.40;7.80;;;18.90;99.90;;;;;;4590422;19;20036;-26
2023/08/10 03:12:35;;;;;;;10.23;7.30;;;18.90;99.90;;;;;;4591660;19;20007;-29
2023/08/10 03:14:08;;;;;;;11.02;7.68;;;18.90;99.90;;;;;;4592418;19;20014;-30
2023/08/10 03:15:40;;;;;;;10.20;6.57;;;18.90;99.90;;;;;;4592710;19;20015;-31
2023/08/10 03:17:11;;;;;;;;;;;18.90;99.90;;;;;;4593791;19;20456;-33
2023/08/10 03:18:42;;;;;;;8.35;5.88;;;18.90;99.90;;;;;;4591370;19;19996;-30
2023/08/10 03:20:16;;;;;;;7.13;5.70;;;18.90;99.90;;;;;;4592164;19;20021;-26
2023/08/10 03:21:47;;;;;;;6.50;5.20;;;18.90;99.90;;;;;;4591593;19;20007;-31
2023/08/10 03:23:20;;;;;;;9.35;5.72;;;18.90;99.90;;;;;;4591582;19;20007;-26
2023/08/10 03:24:52;;;;;;;;;;;18.90;99.90;;;;;;4592816;19;20019;-29
2023/08/10 03:26:24;;;;;;;9.90;6.60;;;18.90;99.90;;;;;;4592838;19;19927;-28
2023/08/10 03:27:55;;;;;;;8.38;6.10;;;18.90;99.90;;;;;;4593057;19;20062;-30
2023/08/10 03:29:26;;;;;;;8.80;5.63;;;18.90;99.90;;;;;;4593252;19;20032;-26
2023/08/10 03:30:57;;;;;;;9.07;5.93;;;18.90;99.90;;;;;;4590839;19;20471;-26
2023/08/10 03:32:29;;;;;;;9.65;6.88;;;18.90;99.90;;;;;;4592247;19;20007;-30
2023/08/10 03:34:00;;;;;;;8.30;5.82;;;18.90;99.90;;;;;;4592130;19;20042;-31
2023/08/10 03:35:31;;;;;;;8.25;6.18;;;18.90;99.90;;;;;;4591392;19;20391;-26
2023/08/10 03:37:04;;;;;;;8.43;6.22;;;18.90;99.90;;;;;;4591854;19;20030;-26
2023/08/10 03:38:35;;;;;;;9.40;5.95;;;18.90;99.90;;;;;;4592383;19;20022;-26
2023/08/10 03:40:07;;;;;;;8.00;5.85;;;18.90;99.90;;;;;;4592669;19;20499;-28
2023/08/10 03:41:39;;;;;;;9.73;6.30;;;18.90;99.90;;;;;;4590871;19;20011;-26
2023/08/10 03:43:13;;;;;;;9.05;5.72;;;18.90;99.90;;;;;;4591914;19;20006;-28
2023/08/10 03:44:44;;;;;;;8.02;5.75;;;19.00;99.90;;;;;;4590978;19;20022;-25
2023/08/10 03:46:15;;;;;;;;;;;19.00;99.90;;;;;;4591949;19;20020;-32
2023/08/10 03:47:48;;;;;;;7.68;5.05;;;19.00;99.90;;;;;;4591403;19;19941;-27
2023/08/10 03:49:22;;;;;;;7.25;5.50;;;19.20;99.90;;;;;;4592112;19;20015;-30
2023/08/10 03:50:55;;;;;;;6.75;5.13;;;19.30;99.90;;;;;;4592012;19;20105;-26
2023/08/10 03:52:27;;;;;;;7.20;5.35;;;19.40;99.90;;;;;;4592730;19;20010;-30
2023/08/10 03:53:59;;;;;;;7.35;5.35;;;19.40;99.90;;;;;;4590459;19;20337;-26
2023/08/10 03:55:32;;;;;;;7.68;5.60;;;19.50;99.90;;;;;;4590773;19;20021;-26
2023/08/10 03:57:04;;;;;;;7.72;5.18;;;19.60;99.90;;;;;;4590590;19;20022;-27
2023/08/10 03:58:37;;;;;;;8.70;5.82;;;19.70;99.90;;;;;;4591778;19;20481;-26
2023/08/10 04:00:10;;;;;;;7.47;5.47;;;19.70;99.90;;;;;;4590623;19;20496;-32
2023/08/10 04:01:43;;;;;;;8.43;5.40;;;19.70;99.90;;;;;;4591598;19;20022;-26
2023/08/10 04:03:15;;;;;;;6.93;5.30;;;19.70;99.90;;;;;;4590928;19;19998;-26
2023/08/10 04:04:47;;;;;;;7.13;5.53;;;19.70;99.90;;;;;;4591650;19;20003;-30
2023/08/10 04:06:18;;;;;;;7.90;6.00;;;19.70;99.90;;;;;;4591645;19;20348;-25
2023/08/10 04:07:51;;;;;;;8.95;6.75;;;19.70;99.90;;;;;;4590293;19;20021;-26
2023/08/10 04:09:22;;;;;;;8.68;6.03;;;19.70;99.90;;;;;;4590792;19;20047;-26
2023/08/10 04:10:55;;;;;;;7.75;6.05;;;19.80;99.90;;;;;;4590373;19;20013;-26
2023/08/10 04:12:27;;;;;;;7.75;5.82;;;19.90;99.90;;;;;;4590408;19;20018;-28
2023/08/10 04:13:59;;;;;;;9.88;6.47;;;20.00;99.90;;;;;;4591310;19;20078;-26
2023/08/10 04:15:31;;;;;;;8.68;5.88;;;20.00;99.90;;;;;;4591609;19;20110;-28
2023/08/10 04:17:02;;;;;;;10.00;6.28;;;20.00;99.90;;;;;;4591213;19;20018;-29
2023/08/10 04:18:34;;;;;;;9.77;7.00;;;20.10;99.90;;;;;;4591596;19;20010;-26
2023/08/10 04:20:09;;;;;;;8.50;6.32;;;20.10;99.90;;;;;;4590519;19;20006;-28
2023/08/10 04:21:42;;;;;;;11.15;8.48;;;20.10;99.90;;;;;;4591714;19;20029;-26
2023/08/10 04:23:15;;;;;;;10.95;8.30;;;20.20;99.90;;;;;;4589781;19;20081;-26
2023/08/10 04:24:47;;;;;;;9.30;7.70;;;20.20;99.90;;;;;;4590688;19;20019;-26
2023/08/10 04:26:21;;;;;;;10.43;7.65;;;20.10;99.90;;;;;;4591511;19;20009;-26
2023/08/10 04:27:52;;;;;;;9.73;6.00;;;20.10;99.90;;;;;;4590521;19;20010;-26
2023/08/10 04:29:26;;;;;;;10.27;7.25;;;20.00;99.90;;;;;;4590025;19;20014;-28
2023/08/10 04:30:57;;;;;;;10.88;8.05;;;20.00;99.90;;;;;;4589463;19;20045;-26
2023/08/10 04:32:30;;;;;;;9.68;7.00;;;20.00;99.90;;;;;;4590598;19;20017;-24
2023/08/10 04:34:02;;;;;;;10.48;6.47;;;19.90;99.90;;;;;;4591324;19;20030;-26
2023/08/10 04:35:33;;;;;;;8.93;7.28;;;19.90;99.90;;;;;;4590654;19;20010;-26
2023/08/10 04:37:06;;;;;;;12.45;6.45;;;19.90;99.90;;;;;;4591311;19;20078;-27
2023/08/10 04:38:39;;;;;;;10.15;6.50;;;19.90;99.90;;;;;;4590859;19;20021;-28
2023/08/10 04:40:10;;;;;;;6.93;5.93;;;19.90;99.90;;;;;;4589680;19;20031;-23
2023/08/10 04:41:41;;;;;;;8.50;5.97;;;20.00;99.90;;;;;;4590292;19;20018;-26
2023/08/10 04:43:13;;;;;;;;;;;20.00;99.90;;;;;;4590421;19;20078;-32
2023/08/10 04:44:44;;;;;;;8.15;6.10;;;20.10;99.90;;;;;;4590115;19;20333;-29
2023/08/10 04:46:15;;;;;;;10.60;8.23;;;20.20;99.90;;;;;;4589497;19;20019;-26
2023/08/10 04:47:48;;;;;;;13.55;9.85;;;20.30;99.90;;;;;;4589716;19;20049;-26
2023/08/10 04:49:20;;;;;;;14.43;10.27;;;20.30;99.90;;;;;;4589654;19;20019;-26
2023/08/10 04:50:51;;;;;;;11.68;8.70;;;20.40;99.90;;;;;;4590251;19;20070;-26
2023/08/10 04:52:23;;;;;;;;;;;20.50;99.90;;;;;;4591518;19;20015;-28
2023/08/10 04:53:54;;;;;;;8.60;6.10;;;20.50;99.90;;;;;;4590509;19;19918;-28
2023/08/10 04:55:25;;;;;;;10.25;6.20;;;20.60;99.90;;;;;;4591308;19;20007;-28
2023/08/10 04:56:56;;;;;;;10.18;6.68;;;20.60;99.90;;;;;;4589522;19;20002;-28
2023/08/10 04:58:27;;;;;;;7.53;5.32;;;20.60;99.90;;;;;;4589511;19;20106;-26
2023/08/10 04:59:58;;;;;;;10.20;6.13;;;20.60;99.90;;;;;;4588835;19;20021;-26
2023/08/10 05:01:30;;;;;;;8.02;5.35;;;20.70;99.90;;;;;;4589855;19;20007;-26
2023/08/10 05:03:04;;;;;;;7.25;5.43;;;20.70;99.90;;;;;;4589422;19;20030;-28
2023/08/10 05:04:36;;;;;;;9.10;5.40;;;20.70;99.90;;;;;;4589926;19;20344;-30
2023/08/10 05:06:08;;;;;;;;;;;20.70;99.90;;;;;;4591520;19;20360;-27
2023/08/10 05:07:39;;;;;;;8.70;5.10;;;20.70;99.90;;;;;;4590483;19;19919;-29
2023/08/10 05:09:12;;;;;;;14.90;5.50;;;20.60;99.90;;;;;;4589908;19;20027;-30
2023/08/10 05:10:43;;;;;;;6.07;4.72;;;20.60;99.90;;;;;;4589991;19;20010;-31
2023/08/10 05:12:15;;;;;;;7.97;5.25;;;20.60;99.90;;;;;;4589453;19;20014;-28
2023/08/10 05:13:48;;;;;;;9.10;5.72;;;20.60;99.90;;;;;;4590943;19;20087;-30
2023/08/10 05:15:21;;;;;;;12.25;5.32;;;20.60;99.90;;;;;;4589855;19;20019;-28
2023/08/10 05:16:54;;;;;;;6.82;5.15;;;20.50;99.90;;;;;;4590141;19;20019;-28
2023/08/10 05:18:26;;;;;;;7.47;5.28;;;20.50;99.90;;;;;;4590445;19;20017;-31
2023/08/10 05:19:57;;;;;;;9.52;5.03;;;20.50;99.90;;;;;;4588999;19;20022;-27
2023/08/10 05:21:29;;;;;;;7.97;4.90;;;20.50;99.90;;;;;;4589416;19;20013;-26
2023/08/10 05:23:00;;;;;;;;;;;20.40;99.90;;;;;;4591046;19;20010;-29
2023/08/10 05:24:35;;;;;;;6.60;4.25;;;20.40;99.90;;;;;;4590411;19;19915;-26
2023/08/10 05:26:08;;;;;;;6.40;4.32;;;20.40;99.90;;;;;;4589548;19;20002;-26
2023/08/10 05:27:39;;;;;;;6.18;4.22;;;20.40;99.90;;;;;;4589498;19;20115;-28
2023/08/10 05:29:11;;;;;;;5.75;4.18;;;20.40;99.90;;;;;;4588647;19;20043;-26
2023/08/10 05:30:43;;;;;;;6.93;4.43;;;20.40;99.90;;;;;;4589141;19;20014;-28
2023/08/10 05:32:14;;;;;;;7.10;3.90;;;20.30;99.90;;;;;;4590329;19;20066;-26
2023/08/10 05:33:45;;;;;;;7.38;4.30;;;20.40;99.90;;;;;;4588757;19;20508;-26
2023/08/10 05:35:17;;;;;;;8.77;4.78;;;20.30;99.90;;;;;;4589294;19;20398;-26
2023/08/10 05:36:49;;;;;;;6.63;4.28;;;20.30;99.90;;;;;;4589723;19;19995;-26
2023/08/10 05:38:20;;;;;;;;;;;20.30;99.90;;;;;;4589559;19;20029;-26
2023/08/10 05:39:51;;;;;;;6.97;3.95;;;20.30;99.90;;;;;;4588849;19;19919;-31
2023/08/10 05:41:23;;;;;;;8.55;4.35;;;20.30;99.90;;;;;;4589562;19;19999;-26
2023/08/10 05:42:55;;;;;;;;;;;20.30;99.90;;;;;;4589504;19;20364;-30
2023/08/10 05:44:26;;;;;;;7.35;3.60;;;20.20;99.90;;;;;;4588620;19;19996;-30
2023/08/10 05:45:57;;;;;;;7.82;4.00;;;20.20;99.90;;;;;;4589163;19;20011;-28
2023/08/10 05:47:30;;;;;;;6.40;4.03;;;20.20;99.90;;;;;;4588632;19;20019;-30
2023/08/10 05:49:03;;;;;;;7.85;3.40;;;20.20;99.90;;;;;;4589591;19;20017;-27
2023/08/10 05:50:37;;;;;;;7.78;3.67;;;20.20;99.90;;;;;;4589541;19;20010;-29
2023/08/10 05:52:08;;;;;;;7.00;3.30;;;20.10;99.90;;;;;;4587431;19;20014;-26
2023/08/10 05:53:41;;;;;;;7.78;3.15;;;20.20;99.90;;;;;;4589663;19;20010;-27
2023/08/10 05:55:15;;;;;;;8.35;3.70;;;20.20;99.90;;;;;;4589577;19;20013;-28
2023/08/10 05:56:46;;;;;;;4.70;3.05;;;20.20;99.90;;;;;;4588272;19;20058;-30
2023/08/10 05:58:17;;;;;;;9.07;3.42;;;20.30;99.90;;;;;;4589245;19;20045;-26
2023/08/10 05:59:50;;;;;;;5.72;2.88;;;20.40;99.90;;;;;;4589071;19;20440;-26
2023/08/10 06:01:23;;;;;;;5.60;3.47;;;20.40;99.90;;;;;;4588567;19;20003;-30
2023/08/10 06:02:54;;;;;;;7.85;3.17;;;20.40;99.90;;;;;;4588341;19;20018;-26
2023/08/10 06:04:26;;;;;;;6.50;3.65;;;20.40;99.90;;;;;;4588502;19;20189;-26
2023/08/10 11:42:35;;;;;;;1.40;0.82;;;20.50;99.90;;;;;;4586415;19;20372;-25
2023/08/10 11:57:48;;;;;;;4.68;1.20;;;20.60;99.90;;;;;;4579725;19;20074;-70
2023/08/10 12:01:05;;;;;;;2.15;1.10;;;19.90;99.90;;;;;;4560542;19;20850;31
2023/08/10 12:02:37;;;;;;;2.08;1.30;;;19.30;99.90;;;;;;4593211;19;20010;-61
2023/08/10 12:04:14;;;;;;;2.85;1.15;;;19.10;99.90;;;;;;4592938;19;20006;-68
2023/08/10 12:05:50;;;;;;;2.40;1.30;;;19.10;99.90;;;;;;4593844;19;20010;-66
2023/08/10 12:07:22;;;;;;;2.83;1.17;;;19.10;99.90;;;;;;4593791;19;20010;-65
2023/08/10 12:08:55;;;;;;;2.22;1.05;;;19.20;99.90;;;;;;4591939;19;20010;-65
2023/08/10 12:10:42;;;;;;;1.95;1.27;;;19.20;99.90;;;;;;4592748;19;20496;-69
2023/08/10 12:12:15;;;;;;;2.25;1.10;;;19.20;99.90;;;;;;4591333;19;20034;-74
2023/08/10 12:13:49;;;;;;;1.88;0.95;;;19.30;99.90;;;;;;4591661;19;20322;-72
2023/08/10 12:15:23;;;;;;;2.55;1.30;;;19.30;99.90;;;;;;4591811;19;20002;-72
2023/08/10 12:16:55;;;;;;;2.72;1.35;;;19.50;99.90;;;;;;4592296;19;20008;-71
2023/08/10 12:18:28;;;;;;;2.25;1.33;;;19.60;99.90;;;;;;4593238;19;20002;-71
2023/08/10 12:20:00;;;;;;;1.48;0.90;;;19.80;99.90;;;;;;4592156;19;20009;-72
2023/08/10 12:21:32;;;;;;;1.10;0.77;;;19.80;99.90;;;;;;4592587;19;20013;-71
2023/08/10 12:23:05;;;;;;;3.10;1.25;;;19.90;99.90;;;;;;4593298;19;20017;-71
2023/08/10 12:24:37;;;;;;;2.33;1.10;;;20.00;99.90;;;;;;4592635;19;20003;-73
2023/08/10 12:26:11;;;;;;;2.10;1.05;;;20.10;99.90;;;;;;4592614;19;19999;-73
2023/08/10 12:27:43;;;;;;;3.08;1.27;;;19.80;99.90;;;;;;4592902;19;20014;-67
2023/08/10 12:29:15;;;;;;;2.45;1.30;;;19.90;99.90;;;;;;4592674;19;19999;-61
2023/08/10 12:30:48;;;;;;;2.00;0.98;;;20.00;99.90;;;;;;4592467;19;20023;-60
2023/08/10 12:32:21;;;;;;;2.03;1.10;;;20.10;99.90;;;;;;4591499;19;20017;-60
2023/08/10 12:33:56;;;;;;;2.17;1.20;;;20.20;99.90;;;;;;4592830;19;20003;-68
2023/08/10 12:35:28;;;;;;;2.35;1.30;;;20.20;99.90;;;;;;4591198;19;19998;-66
2023/08/10 12:37:00;;;;;;;2.72;1.20;;;20.40;99.90;;;;;;4591370;19;20021;-61
2023/08/10 12:38:32;;;;;;;4.03;1.33;;;20.30;99.90;;;;;;4592230;19;20011;-61
2023/08/10 12:40:05;;;;;;;1.60;1.00;;;19.70;99.90;;;;;;4592273;19;20010;-61
2023/08/10 12:41:37;;;;;;;3.70;1.13;;;19.50;99.90;;;;;;4590607;19;20014;-60
2023/08/10 12:43:08;;;;;;;2.00;1.10;;;19.50;99.90;;;;;;4590651;19;20034;-60
2023/08/10 12:44:39;;;;;;;2.65;1.23;;;19.50;99.90;;;;;;4590819;19;20023;-60
2023/08/10 12:46:11;;;;;;;3.13;1.52;;;19.50;99.90;;;;;;4590515;19;20014;-60
2023/08/10 12:47:43;;;;;;;2.58;1.30;;;19.50;99.90;;;;;;4590501;19;20037;-60
2023/08/10 12:49:15;;;;;;;2.92;1.65;;;19.50;99.90;;;;;;4590472;19;20018;-60
2023/08/10 12:50:47;;;;;;;2.72;1.33;;;19.50;99.90;;;;;;4590614;19;20006;-61
2023/08/10 12:52:18;;;;;;;2.83;1.50;;;19.50;99.90;;;;;;4589642;19;20081;-60
2023/08/10 12:53:50;;;;;;;2.92;1.70;;;19.60;99.90;;;;;;4590904;19;20014;-63
2023/08/10 12:55:22;;;;;;;3.45;1.50;;;19.60;99.90;;;;;;4589395;19;20018;-61
2023/08/10 12:56:53;;;;;;;2.70;1.40;;;19.60;99.90;;;;;;4590666;19;19998;-61
2023/08/10 12:58:25;;;;;;;2.83;1.50;;;19.60;99.90;;;;;;4592545;19;20074;-61
2023/08/10 12:59:59;;;;;;;3.03;1.45;;;19.60;99.90;;;;;;4591076;19;20003;-62
2023/08/10 13:01:32;;;;;;;2.53;1.40;;;19.60;99.90;;;;;;4589345;19;20021;-62
2023/08/10 13:03:04;;;;;;;2.92;1.38;;;19.60;99.90;;;;;;4592487;19;20022;-61
2023/08/10 13:04:37;;;;;;;2.40;1.30;;;19.60;99.90;;;;;;4592141;19;20010;-61
2023/08/10 13:06:09;;;;;;;2.35;1.17;;;19.60;99.90;;;;;;4592292;19;19998;-62
2023/08/10 13:07:45;;;;;;;2.88;1.65;;;19.60;99.90;;;;;;4592166;19;20042;-61
2023/08/10 13:09:17;;;;;;;1.83;1.27;;;19.50;99.90;;;;;;4592156;19;20002;-61
2023/08/10 13:10:49;;;;;;;3.35;2.05;;;19.60;99.90;;;;;;4592531;19;20421;-61
2023/08/10 13:12:21;;;;;;;2.75;1.55;;;19.60;99.90;;;;;;4591196;19;20003;-61
2023/08/10 13:13:54;;;;;;;3.30;1.40;;;19.60;99.90;;;;;;4591939;19;20015;-61
2023/08/10 13:15:27;;;;;;;2.45;1.30;;;19.60;99.90;;;;;;4592283;19;20006;-61
2023/08/10 13:16:59;;;;;;;4.95;2.80;;;19.60;99.90;;;;;;4592244;19;20006;-61
2023/08/10 13:18:33;;;;;;;2.38;1.25;;;19.60;99.90;;;;;;4591903;19;20031;-62
2023/08/10 13:20:07;;;;;;;2.38;0.93;;;19.60;99.90;;;;;;4589774;19;20006;-62
2023/08/10 13:21:39;;;;;;;1.75;1.30;;;19.60;99.90;;;;;;4589917;19;20013;-61
2023/08/10 13:23:11;;;;;;;3.25;1.20;;;19.60;99.90;;;;;;4591849;19;19999;-61
2023/08/10 13:24:43;;;;;;;2.90;1.52;;;19.70;99.90;;;;;;4592516;19;20027;-61
2023/08/10 13:26:16;;;;;;;2.92;1.27;;;19.70;99.90;;;;;;4590510;19;20013;-62
2023/08/10 13:27:48;;;;;;;2.22;1.30;;;19.70;99.90;;;;;;4591653;19;20006;-62
2023/08/10 13:29:20;;;;;;;2.40;1.45;;;19.80;99.90;;;;;;4592117;19;20025;-61
2023/08/10 13:30:52;;;;;;;2.20;1.23;;;19.80;99.90;;;;;;4591823;19;20082;-60
2023/08/10 13:32:25;;;;;;;1.83;1.13;;;19.90;99.90;;;;;;4590532;19;20043;-60
2023/08/10 13:33:57;;;;;;;2.17;1.27;;;20.00;99.90;;;;;;4591202;19;20014;-61
2023/08/10 13:35:29;;;;;;;2.90;1.27;;;20.00;99.90;;;;;;4592158;19;19998;-61
2023/08/10 13:37:02;;;;;;;2.25;1.40;;;19.90;99.90;;;;;;4591804;19;20018;-61
2023/08/10 13:38:35;;;;;;;2.58;1.45;;;19.70;99.90;;;;;;4590688;19;20002;-61
2023/08/10 13:40:08;;;;;;;2.55;1.30;;;19.60;99.90;;;;;;4591338;19;20003;-61
2023/08/10 13:41:41;;;;;;;2.30;1.00;;;19.60;99.90;;;;;;4590915;19;20018;-61
2023/08/10 13:43:13;;;;;;;2.97;1.40;;;19.60;99.90;;;;;;4592007;19;19999;-61
2023/08/10 13:44:45;;;;;;;2.50;1.63;;;19.70;99.90;;;;;;4591964;19;20002;-61
2023/08/10 13:46:18;;;;;;;4.18;1.42;;;19.70;99.90;;;;;;4591937;19;20426;-61
2023/08/10 13:47:51;;;;;;;2.13;1.52;;;19.80;99.90;;;;;;4591984;19;20094;-61
2023/08/10 13:49:24;;;;;;;2.33;1.20;;;19.80;99.90;;;;;;4591603;19;20011;-61
2023/08/10 13:50:57;;;;;;;2.60;1.50;;;19.80;99.90;;;;;;4591846;19;20010;-61
2023/08/10 13:52:29;;;;;;;2.72;1.35;;;19.80;99.90;;;;;;4590367;19;20006;-61
2023/08/10 13:54:01;;;;;;;1.85;1.10;;;19.90;99.90;;;;;;4591866;19;20002;-61
2023/08/10 13:55:33;;;;;;;1.95;1.30;;;19.90;99.90;;;;;;4591414;19;20037;-61
2023/08/10 13:57:11;;;;;;;2.40;1.23;;;19.90;99.90;;;;;;4591593;19;20002;-61
2023/08/10 13:58:43;;;;;;;2.38;1.45;;;20.00;99.90;;;;;;4591538;19;20007;-61
2023/08/10 14:00:16;;;;;;;4.18;1.50;;;20.00;99.90;;;;;;4591439;19;20019;-61
2023/08/10 14:01:48;;;;;;;2.53;1.40;;;20.00;99.90;;;;;;4590292;19;20018;-61
2023/08/10 14:03:20;;;;;;;2.35;1.17;;;19.90;99.90;;;;;;4589771;19;20014;-61
2023/08/10 14:04:53;;;;;;;2.97;1.25;;;19.90;99.90;;;;;;4591230;19;20023;-61
2023/08/10 14:06:25;;;;;;;2.63;1.35;;;19.90;99.90;;;;;;4591245;19;20011;-62
2023/08/10 14:07:57;;;;;;;2.85;1.50;;;20.00;99.90;;;;;;4591244;19;20005;-61
2023/08/10 14:09:29;;;;;;;2.15;1.20;;;20.00;99.90;;;;;;4591296;19;19998;-61
2023/08/10 14:11:02;;;;;;;3.15;1.70;;;20.00;99.90;;;;;;4589805;19;20006;-61
2023/08/10 14:12:34;;;;;;;6.63;1.80;;;20.00;99.90;;;;;;4590804;19;20445;-61
2023/08/10 14:14:06;;;;;;;2.30;1.13;;;20.00;99.90;;;;;;4591154;19;20010;-61
2023/08/10 14:15:38;;;;;;;1.75;1.15;;;19.90;99.90;;;;;;4591362;19;20003;-60
2023/08/10 14:17:10;;;;;;;2.78;1.20;;;20.00;99.90;;;;;;4590722;19;20353;-61
2023/08/10 14:18:43;;;;;;;2.35;1.50;;;20.00;99.90;;;;;;4590899;19;20007;-61
2023/08/10 14:20:15;;;;;;;2.47;1.30;;;20.00;99.90;;;;;;4589282;19;20313;-61
2023/08/10 14:21:47;;;;;;;3.22;1.23;;;20.00;99.90;;;;;;4589885;19;20022;-61
2023/08/10 14:23:19;;;;;;;1.90;1.20;;;19.90;99.90;;;;;;4589699;19;20018;-61
2023/08/10 14:24:52;;;;;;;1.92;1.30;;;19.90;99.90;;;;;;4590604;19;20403;-61
2023/08/10 14:26:24;;;;;;;2.08;1.20;;;19.90;99.90;;;;;;4589966;19;20003;-61
2023/08/10 14:27:57;;;;;;;3.53;1.50;;;19.90;99.90;;;;;;4590600;19;20014;-61
2023/08/10 14:29:29;;;;;;;3.08;1.10;;;19.90;99.90;;;;;;4591297;19;20070;-61
2023/08/10 14:31:01;;;;;;;3.13;1.60;;;19.90;99.90;;;;;;4590964;19;20002;-61
2023/08/10 14:32:33;;;;;;;2.53;1.10;;;19.80;99.90;;;;;;4584843;19;20011;-61
2023/08/10 14:34:05;;;;;;;2.40;1.25;;;19.70;99.90;;;;;;4593352;19;20021;-61
2023/08/10 14:35:37;;;;;;;2.50;1.23;;;19.60;99.90;;;;;;4593490;19;20014;-61
2023/08/10 14:37:09;;;;;;;2.78;1.58;;;19.50;99.90;;;;;;4593163;19;20038;-61
2023/08/10 14:38:41;;;;;;;3.08;1.80;;;19.40;99.90;;;;;;4593567;19;20007;-60